Latest Weather Observations for Kununurra Airport

IDD60801

Issued at 8:51 pm CST Tuesday 4 August 2020 (issued every 10 minutes, with the page automatically refreshed every 10 minutes)

About weather observations | Map of weather stations | Latest weather observations for NT | Other Formats
Station Details ID: 002056 Name: KUNUNURRA AERO Lat: -15.78 Lon: 128.71 Height: 44.0 m
Data from the previous 72 hours. | See also: Recent months at Kununurra Airport
Date/Time
CST
Temp
°C
App
Temp
°C
Dew
Point
°C
Rel
Hum
%
Delta-T
°C
Wind Press
QNH
hPa
Press
MSL
hPa
Rain since
9am
mm
Dir  Spd
km/h
Gust
km/h
Spd
kts
Gust
kts
04/08:30pm 23.9 - - - - N 15 15 8 8 1010.5 1010.3 0.0
04/08:00pm 24.6 - - - - N 13 15 7 8 1010.1 1009.9 0.0
04/07:30pm 26.2 - - - - CALM 0 0 0 0 1009.6 1009.4 0.0
04/07:00pm 27.7 - - - - NW 4 6 2 3 1009.2 1009.0 0.0
04/06:30pm 30.1 - - - - N 9 11 5 6 1009.0 1008.8 0.0
04/06:00pm 31.9 - - - - N 9 13 5 7 1008.8 1008.6 0.0
04/05:30pm 32.5 - - - - NNE 11 15 6 8 1008.5 1008.3 0.0
04/05:00pm 33.3 - - - - WNW 7 11 4 6 1008.5 1008.3 0.0
04/04:30pm 33.4 - - - - N 9 15 5 8 1008.4 1008.2 0.0
04/04:00pm 33.6 - - - - WNW 9 17 5 9 1008.5 1008.3 0.0
04/03:30pm 33.3 - - - - ESE 7 11 4 6 1008.7 1008.5 0.0
04/03:00pm 32.9 - - - - N 7 15 4 8 1009.1 1008.9 0.0
04/02:30pm 33.1 - - - - E 9 15 5 8 1009.5 1009.3 0.0
04/02:00pm 32.4 - - - - ENE 11 17 6 9 1010.0 1009.8 0.0
04/01:30pm 32.5 - - - - SE 9 15 5 8 1010.6 1010.4 0.0
04/01:00pm 31.9 - - - - ENE 9 15 5 8 1011.1 1010.9 0.0
04/12:30pm 30.6 - - - - SE 9 15 5 8 1011.6 1011.4 0.0
04/12:00pm 30.1 - - - - S 7 11 4 6 1012.0 1011.8 0.0
04/11:30am 29.5 - - - - SSW 7 11 4 6 1012.4 1012.2 0.0
04/11:00am 28.3 - - - - S 6 11 3 6 1012.7 1012.5 0.0
04/10:30am 26.6 - - - - SSE 2 7 1 4 1013.1 1012.9 0.0
04/10:00am 24.3 - - - - SSE 7 9 4 5 1013.3 1013.1 0.0
04/09:30am 22.2 - - - - SSE 6 9 3 5 1013.1 1012.9 0.0
04/09:00am 20.5 - - - - SE 2 7 1 4 1012.9 1012.7 0.0
04/08:30am 18.0 - - - - CALM 0 0 0 0 1012.7 1012.5 0.0
04/08:00am 15.1 - - - - CALM 0 0 0 0 1012.6 1012.4 0.0
04/07:30am 12.3 - - - - CALM 0 0 0 0 1012.4 1012.2 0.0
04/07:00am 12.2 - - - - CALM 0 0 0 0 1012.0 1011.8 0.0
04/06:30am 12.5 - - - - CALM 0 0 0 0 1011.7 1011.5 0.0
04/06:00am 12.8 - - - - N 2 6 1 3 1011.5 1011.3 0.0
04/05:30am 13.0 - - - - N 2 7 1 4 1011.4 1011.2 0.0
04/05:00am 13.4 - - - - W 2 9 1 5 1011.5 1011.3 0.0
04/04:30am 13.4 - - - - CALM 0 0 0 0 1011.4 1011.2 0.0
04/04:00am 13.4 - - - - CALM 0 0 0 0 1011.4 1011.2 0.0
04/03:30am 13.8 - - - - CALM 0 0 0 0 1011.5 1011.3 0.0
04/03:00am 14.7 - - - - CALM 0 0 0 0 1011.7 1011.5 0.0
04/02:30am 14.4 - - - - CALM 0 0 0 0 1011.8 1011.6 0.0
04/02:00am 15.1 - - - - CALM 0 0 0 0 1011.9 1011.7 0.0
04/01:30am 15.1 - - - - CALM 0 0 0 0 1012.1 1011.9 0.0
04/01:00am 15.7 - - - - CALM 0 0 0 0 1012.4 1012.2 0.0
04/12:30am 16.2 - - - - CALM 0 0 0 0 1012.4 1012.2 0.0
04/12:00am 17.0 - - - - CALM 0 6 0 3 1012.4 1012.2 0.0
 
Date/Time
CST
Temp
°C
App
Temp
°C
Dew
Point
°C
Rel
Hum
%
Delta-T
°C
Wind Press
QNH
hPa
Press
MSL
hPa
Rain since
9am
mm
Dir  Spd
km/h
Gust
km/h
Spd
kts
Gust
kts
03/11:30pm 17.5 - - - - W 4 6 2 3 1012.5 1012.3 0.0
03/11:00pm 18.0 - - - - CALM 0 0 0 0 1012.5 1012.3 0.0
03/10:30pm 20.4 - - - - NNE 6 9 3 5 1012.3 1012.1 0.0
03/10:00pm 19.7 - - - - NE 11 11 6 6 1012.3 1012.1 0.0
03/09:30pm 20.6 - - - - N 13 17 7 9 1011.9 1011.7 0.0
03/09:00pm 20.4 - - - - N 11 15 6 8 1011.7 1011.5 0.0
03/08:30pm 21.3 - - - - NNW 13 15 7 8 1011.2 1011.0 0.0
03/08:00pm 22.1 - - - - CALM 0 0 0 0 1010.5 1010.3 0.0
03/07:30pm 23.4 - - - - CALM 0 0 0 0 1010.2 1010.0 0.0
03/07:00pm 25.1 - - - - CALM 0 0 0 0 1010.1 1009.9 0.0
03/06:59pm 25.3 - - - - CALM 0 0 0 0 1010.0 1009.8 0.0
03/06:30pm 30.3 - - - - CALM 0 2 0 1 1009.8 1009.6 0.0
03/06:00pm 31.3 - - - - CALM 0 0 0 0 1009.7 1009.5 0.0
03/05:30pm 31.3 - - - - S 9 11 5 6 1009.5 1009.3 0.0
03/05:00pm 31.5 - - - - SW 7 11 4 6 1009.5 1009.3 0.0
03/04:30pm 32.1 - - - - WNW 7 11 4 6 1009.5 1009.3 0.0
03/04:00pm 31.7 - - - - S 7 11 4 6 1009.7 1009.5 0.0
03/03:30pm 31.8 - - - - S 11 17 6 9 1010.0 1009.8 0.0
03/03:00pm 31.5 - - - - S 11 15 6 8 1010.3 1010.1 0.0
03/02:30pm 31.4 - - - - S 9 15 5 8 1010.8 1010.6 0.0
03/02:00pm 31.2 - - - - S 9 17 5 9 1011.4 1011.2 0.0
03/01:30pm 30.5 - - - - SE 11 17 6 9 1011.9 1011.7 0.0
03/01:00pm 29.9 - - - - ESE 11 17 6 9 1012.6 1012.4 0.0
03/12:30pm 29.6 - - - - ENE 9 19 5 10 1013.0 1012.8 0.0
03/12:00pm 29.2 - - - - ENE 9 15 5 8 1013.5 1013.3 0.0
03/11:30am 28.3 - - - - ENE 11 17 6 9 1014.2 1014.0 0.0
03/11:00am 27.7 - - - - E 9 15 5 8 1014.5 1014.3 0.0
03/10:30am 26.3 - - - - SSE 9 11 5 6 1014.5 1014.3 0.0
03/10:00am 24.4 - - - - SSW 7 9 4 5 1014.7 1014.5 0.0
03/09:30am 22.2 - - - - CALM 0 0 0 0 1014.4 1014.2 0.0
03/09:00am 19.6 - - - - CALM 0 0 0 0 1014.4 1014.2 0.0
03/08:30am 15.7 - - - - CALM 0 0 0 0 1014.1 1013.9 0.0
03/08:00am 13.9 - - - - NW 2 6 1 3 1013.8 1013.6 0.0
03/07:30am 12.1 - - - - SSE 4 9 2 5 1013.7 1013.5 0.0
03/07:00am 13.0 - - - - S 4 6 2 3 1013.3 1013.1 0.0
03/06:30am 13.5 - - - - S 6 13 3 7 1013.0 1012.8 0.0
03/06:00am 11.7 - - - - E 7 13 4 7 1012.8 1012.6 0.0
03/05:30am 12.7 - - - - S 6 7 3 4 1012.6 1012.4 0.0
03/05:00am 11.7 - - - - S 6 7 3 4 1012.6 1012.4 0.0
03/04:30am 12.5 - - - - CALM 0 0 0 0 1012.5 1012.3 0.0
03/04:00am 13.0 - - - - CALM 0 0 0 0 1012.6 1012.4 0.0
03/03:30am 12.5 - - - - CALM 0 0 0 0 1012.5 1012.3 0.0
03/03:00am 13.2 - - - - E 4 7 2 4 1012.8 1012.6 0.0
03/02:30am 14.3 - - - - SSE 6 9 3 5 1013.0 1012.8 0.0
03/02:00am 13.2 - - - - SSW 6 9 3 5 1013.2 1013.0 0.0
03/01:30am 14.2 - - - - ESE 9 15 5 8 1013.4 1013.2 0.0
03/01:00am 14.8 - - - - CALM 0 0 0 0 1013.5 1013.3 0.0
03/12:30am 14.4 - - - - W 4 6 2 3 1013.4 1013.2 0.0
03/12:00am 14.7 - - - - CALM 0 0 0 0 1013.3 1013.1 0.0
 
Date/Time
CST
Temp
°C
App
Temp
°C
Dew
Point
°C
Rel
Hum
%
Delta-T
°C
Wind Press
QNH
hPa
Press
MSL
hPa
Rain since
9am
mm
Dir  Spd
km/h
Gust
km/h
Spd
kts
Gust
kts
02/11:30pm 15.1 - - - - CALM 0 9 0 5 1013.2 1013.0 0.0
02/11:00pm 17.2 - - - - CALM 0 0 0 0 1013.1 1012.9 0.0
02/10:30pm 18.6 - - - - NNE 2 6 1 3 1013.0 1012.8 0.0
02/10:00pm 18.5 - - - - N 9 11 5 6 1012.9 1012.7 0.0
02/09:30pm 20.3 - - - - NW 13 15 7 8 1012.9 1012.7 0.0
02/09:00pm 17.8 - - - - WNW 13 17 7 9 1012.7 1012.5 0.0
02/08:30pm 20.0 - - - - SE 6 13 3 7 1012.4 1012.2 0.0
02/08:00pm 20.3 - - - - ENE 6 7 3 4 1011.9 1011.7 0.0
02/07:30pm 22.2 - - - - CALM 0 0 0 0 1011.6 1011.4 0.0
02/07:00pm 25.1 - - - - CALM 0 0 0 0 1011.4 1011.2 0.0
02/06:30pm 28.1 - - - - SSW 7 9 4 5 1011.2 1011.0 0.0
02/06:00pm 30.3 - - - - S 7 9 4 5 1010.9 1010.7 0.0
02/05:30pm 30.7 - - - - S 9 11 5 6 1010.7 1010.5 0.0
02/05:00pm 30.8 - - - - SW 9 13 5 7 1010.6 1010.4 0.0
02/04:30pm 31.2 - - - - WNW 6 9 3 5 1010.7 1010.5 0.0
02/04:00pm 30.7 - - - - SSE 9 13 5 7 1010.9 1010.7 0.0
02/03:30pm 30.9 - - - - SSW 9 13 5 7 1011.1 1010.9 0.0
02/03:00pm 30.3 - - - - ESE 11 17 6 9 1011.5 1011.3 0.0
02/02:30pm 30.5 - - - - SSE 13 17 7 9 1011.9 1011.7 0.0
02/02:00pm 30.1 - - - - SSW 15 22 8 12 1012.5 1012.3 0.0
02/01:30pm 30.2 - - - - ESE 13 22 7 12 1013.0 1012.8 0.0
02/01:00pm 29.7 - - - - ESE 13 30 7 16 1013.7 1013.5 0.0
02/12:30pm 29.7 - - - - ESE 17 24 9 13 1014.5 1014.3 0.0
02/12:00pm 28.9 - - - - E 19 26 10 14 1015.0 1014.8 0.0
02/11:30am 28.1 - - - - ESE 13 19 7 10 1015.5 1015.3 0.0
02/11:00am 26.9 - - - - SE 13 20 7 11 1015.9 1015.7 0.0
02/10:30am 25.9 - - - - ESE 13 20 7 11 1016.2 1016.0 0.0
02/10:00am 24.6 - - - - SE 9 13 5 7 1016.2 1016.0 0.0
02/09:30am 22.9 - - - - SE 6 11 3 6 1016.3 1016.2 0.0
02/09:00am 20.1 - - - - SW 4 6 2 3 1016.4 1016.3 0.0
02/08:30am 16.2 - - - - CALM 0 0 0 0 1016.2 1016.0 0.0
02/08:00am 13.0 - - - - E 7 11 4 6 1016.0 1015.8 0.0
02/07:30am 11.4 - - - - N 2 6 1 3 1015.7 1015.5 0.0
02/07:00am 10.3 - - - - CALM 0 0 0 0 1015.5 1015.3 0.0
02/06:30am 10.6 - - - - CALM 0 0 0 0 1015.1 1014.9 0.0
02/06:00am 10.6 - - - - S 6 7 3 4 1014.7 1014.5 0.0
02/05:30am 12.5 - - - - SSE 6 9 3 5 1014.4 1014.2 0.0
02/05:00am 12.4 - - - - S 7 9 4 5 1014.5 1014.3 0.0
02/04:30am 12.5 - - - - SSE 4 7 2 4 1014.7 1014.5 0.0
02/04:00am 12.9 - - - - ESE 7 9 4 5 1014.7 1014.5 0.0
02/03:30am 13.3 - - - - CALM 0 0 0 0 1014.7 1014.5 0.0
02/03:00am 12.7 - - - - CALM 0 0 0 0 1014.9 1014.7 0.0
02/02:30am 13.3 - - - - SSE 6 7 3 4 1015.0 1014.8 0.0
02/02:00am 13.8 - - - - CALM 0 0 0 0 1015.2 1015.0 0.0
02/01:30am 13.4 - - - - CALM 0 0 0 0 1015.3 1015.1 0.0
02/01:00am 13.6 - - - - CALM 0 0 0 0 1015.2 1015.0 0.0
02/12:30am 14.2 - - - - SE 6 6 3 3 1015.2 1015.0 0.0
02/12:00am 14.9 - - - - CALM 0 6 0 3 1015.2 1015.0 0.0
 
Date/Time
CST
Temp
°C
App
Temp
°C
Dew
Point
°C
Rel
Hum
%
Delta-T
°C
Wind Press
QNH
hPa
Press
MSL
hPa
Rain since
9am
mm
Dir  Spd
km/h
Gust
km/h
Spd
kts
Gust
kts
01/11:30pm 14.9 - - - - CALM 0 0 0 0 1015.2 1015.0 0.0
01/11:00pm 16.3 - - - - CALM 0 0 0 0 1015.3 1015.1 0.0
01/10:30pm 16.5 - - - - SW 4 7 2 4 1015.4 1015.2 0.0

Other formats

Comma delimited format used in spreadsheet applications
http://www.bom.gov.au/fwo/IDD60801/IDD60801.94216.axf

JavaScript Object Notation format (JSON) in row-major order
http://www.bom.gov.au/fwo/IDD60801/IDD60801.94216.json

Data quality

Most of these data are generated automatically and are frequently updated. Quality checks on data are not normally performed. It is possible for incorrect values to appear. Refer to information at About Latest Weather Observations and please check the disclaimer before using these data.